Time;durP1;ratioP1;P1;durP2;ratioP2;P2;SDS_P1;SDS_P2;PMS_P1;PMS_P2;Temp;Humidity;BMP_temperature;BMP_pressure;BME280_temperature;BME280_humidity;BME280_pressure;Samples;Min_cycle;Max_cycle;Signal;HPM_P1;HPM_P2
2023/10/05 00:01:18;;;;;;;9.27;3.30;;;;;;;;;;5083154;28;20098;-79
2023/10/05 00:03:50;;;;;;;7.10;2.45;;;20.10;99.90;;;;;;5082614;28;20058;-79
2023/10/05 00:06:17;;;;;;;10.80;2.75;;;20.00;99.90;;;;;;5100686;28;20040;-78
2023/10/05 00:08:53;;;;;;;12.75;2.83;;;20.00;99.90;;;;;;5081352;28;20127;-78
2023/10/05 00:11:24;;;;;;;9.57;3.08;;;20.20;99.90;;;;;;5097897;28;20047;-79
2023/10/05 00:13:52;;;;;;;10.57;2.40;;;19.90;99.90;;;;;;5097792;28;20483;-78
2023/10/05 00:16:21;;;;;;;8.50;2.25;;;20.20;99.90;;;;;;5080438;28;20044;-79
2023/10/05 00:18:48;;;;;;;9.18;2.83;;;19.90;99.90;;;;;;5098211;28;20503;-79
2023/10/05 00:21:18;;;;;;;12.23;3.00;;;20.30;99.90;;;;;;5097404;28;20040;-79
2023/10/05 00:23:43;;;;;;;12.98;3.15;;;20.10;99.90;;;;;;5080887;28;20040;-79
2023/10/05 00:26:09;;;;;;;7.40;2.17;;;20.30;99.90;;;;;;5097087;28;20044;-78
2023/10/05 00:28:35;;;;;;;8.15;2.85;;;19.90;99.90;;;;;;5080651;28;20036;-79
2023/10/05 00:31:03;;;;;;;11.05;2.40;;;;;;;;;;5096739;28;20093;-78
2023/10/05 00:33:28;;;;;;;11.30;2.60;;;20.20;99.90;;;;;;5097363;28;20092;-78
2023/10/05 00:35:54;;;;;;;9.60;2.65;;;20.00;99.90;;;;;;5095714;28;20048;-79
2023/10/05 00:38:20;;;;;;;11.95;2.75;;;20.20;99.90;;;;;;5080063;28;20483;-79
2023/10/05 00:45:47;;;;;;;10.93;2.60;;;20.20;99.90;;;;;;5097230;28;20509;-79
2023/10/05 00:48:23;;;;;;;16.08;2.58;;;20.50;99.90;;;;;;5096324;28;20054;-79
2023/10/05 00:50:51;;;;;;;9.88;2.80;;;20.20;99.90;;;;;;5078035;28;20040;-78
2023/10/05 00:53:19;;;;;;;11.73;3.83;;;20.10;99.90;;;;;;5095920;28;20055;-79
2023/10/05 00:55:57;;;;;;;11.02;2.53;;;20.40;99.90;;;;;;5078966;28;20044;-79
2023/10/05 00:58:34;;;;;;;8.65;2.47;;;20.10;99.90;;;;;;5095797;28;20032;-78
2023/10/05 01:01:05;;;;;;;7.70;2.10;;;20.50;99.90;;;;;;5095912;28;20044;-79
2023/10/05 01:03:46;;;;;;;15.40;2.60;;;20.40;99.90;;;;;;5096290;28;20491;-78
2023/10/05 01:06:28;;;;;;;9.35;2.58;;;20.50;99.90;;;;;;5096843;28;20070;-78
2023/10/05 01:08:59;;;;;;;14.43;2.78;;;20.10;99.90;;;;;;5093502;28;20097;-78
2023/10/05 01:11:52;;;;;;;11.68;2.58;;;20.10;99.90;;;;;;5096039;28;20044;-79
2023/10/05 01:14:18;;;;;;;10.75;2.70;;;20.50;99.90;;;;;;5079294;28;20149;-78
2023/10/05 01:16:45;;;;;;;10.15;2.15;;;20.20;99.90;;;;;;5096183;28;20036;-79
2023/10/05 01:19:11;;;;;;;11.10;2.58;;;;;;;;;;5096298;28;20498;-79
2023/10/05 01:21:39;;;;;;;10.70;2.00;;;20.20;99.90;;;;;;5096490;28;20380;-79
2023/10/05 01:24:05;;;;;;;11.25;2.78;;;20.50;99.90;;;;;;5079217;28;20040;-79
2023/10/05 01:26:37;;;;;;;8.35;2.38;;;20.10;99.90;;;;;;5095490;28;20488;-79
2023/10/05 01:29:02;;;;;;;10.73;2.92;;;20.20;99.90;;;;;;5096463;28;20050;-78
2023/10/05 01:31:29;;;;;;;12.32;2.55;;;;;;;;;;5079009;28;20036;-79
2023/10/05 01:33:55;;;;;;;8.55;1.80;;;20.30;99.90;;;;;;5096245;28;20047;-79
2023/10/05 01:36:23;;;;;;;7.75;2.13;;;20.40;99.90;;;;;;5096379;28;20499;-78
2023/10/05 01:38:48;;;;;;;13.35;2.45;;;20.40;99.90;;;;;;5096560;28;20422;-79
2023/10/05 01:41:21;;;;;;;10.07;2.47;;;20.40;99.90;;;;;;5078926;28;20036;-78
2023/10/05 01:43:47;;;;;;;8.70;2.23;;;20.50;99.90;;;;;;5078605;28;20036;-78
2023/10/05 01:46:14;;;;;;;15.23;4.05;;;20.10;99.90;;;;;;5095819;28;20050;-79
2023/10/05 01:48:40;;;;;;;9.15;2.35;;;20.30;99.90;;;;;;5096418;28;20054;-78
2023/10/05 01:51:23;;;;;;;12.90;2.50;;;;;;;;;;5095733;28;20059;-77
2023/10/05 01:53:51;;;;;;;7.22;2.33;;;;;;;;;;5079873;28;20046;-78
2023/10/05 01:56:23;;;;;;;14.90;2.55;;;20.40;99.90;;;;;;5080045;28;20040;-78
2023/10/05 01:58:54;;;;;;;19.08;2.80;;;20.30;99.90;;;;;;5079201;28;20069;-78
2023/10/05 02:01:28;;;;;;;9.75;2.08;;;20.30;99.90;;;;;;5096734;28;20069;-78
2023/10/05 02:03:54;;;;;;;10.32;2.58;;;20.40;99.90;;;;;;5080052;28;20058;-78
2023/10/05 02:06:23;;;;;;;13.18;2.40;;;20.30;99.90;;;;;;5080865;28;20542;-78
2023/10/05 02:08:48;;;;;;;11.05;2.60;;;20.50;99.90;;;;;;5097140;28;20032;-78
2023/10/05 02:11:19;;;;;;;15.20;3.03;;;20.30;99.90;;;;;;5098132;28;20079;-78
2023/10/05 02:13:45;;;;;;;12.80;2.97;;;20.40;99.90;;;;;;5092727;28;20076;-78
2023/10/05 02:16:21;;;;;;;15.90;2.78;;;20.10;99.90;;;;;;5103786;28;20040;-78
2023/10/05 02:18:48;;;;;;;10.50;2.50;;;20.30;99.90;;;;;;5098507;28;20503;-78
2023/10/05 02:21:19;;;;;;;14.80;2.92;;;20.10;99.90;;;;;;5105450;28;20028;-79
2023/10/05 02:23:47;;;;;;;11.18;2.45;;;20.50;99.90;;;;;;5106223;28;20040;-79
2023/10/05 02:26:33;;;;;;;14.63;3.03;;;20.40;99.90;;;;;;5093922;28;20093;-79
2023/10/05 02:29:10;;;;;;;10.95;2.55;;;20.30;99.90;;;;;;5076916;28;20040;-79
2023/10/05 02:31:50;;;;;;;11.27;2.92;;;;;;;;;;5094211;28;20127;-79
2023/10/05 02:34:19;;;;;;;13.00;3.38;;;20.20;99.90;;;;;;5077561;28;20036;-78
2023/10/05 02:36:45;;;;;;;14.82;2.67;;;;;;;;;;5097340;28;20040;-80
2023/10/05 02:39:11;;;;;;;12.07;2.90;;;;;;;;;;5098633;28;20032;-78
2023/10/05 02:41:40;;;;;;;16.90;3.22;;;;;;;;;;5107126;28;20043;-78
2023/10/05 02:47:08;;;;;;;12.00;3.45;;;20.30;99.90;;;;;;5063215;28;20048;-79
2023/10/05 02:49:44;;;;;;;18.30;3.40;;;20.30;99.90;;;;;;5109164;28;20036;-79
2023/10/05 02:52:14;;;;;;;18.50;3.25;;;20.00;99.90;;;;;;5108251;28;20095;-79
2023/10/05 02:54:40;;;;;;;14.25;3.67;;;20.50;99.90;;;;;;5090493;28;20040;-78
2023/10/05 02:57:11;;;;;;;9.38;2.67;;;20.50;99.90;;;;;;5091781;28;20044;-79
2023/10/05 02:59:37;;;;;;;19.13;3.38;;;20.30;99.90;;;;;;5108405;28;20115;-79
2023/10/05 03:02:10;;;;;;;12.43;2.92;;;20.30;99.90;;;;;;5106065;28;20036;-79
2023/10/05 03:04:46;;;;;;;19.15;4.55;;;20.50;99.90;;;;;;5101224;28;20040;-78
2023/10/05 03:07:16;;;;;;;12.15;3.58;;;20.00;99.90;;;;;;5100569;28;20048;-78
2023/10/05 03:09:43;;;;;;;12.43;3.05;;;20.10;99.90;;;;;;5081670;28;20047;-78
2023/10/05 03:12:12;;;;;;;17.25;3.15;;;20.20;99.90;;;;;;5105484;22;20062;-74
2023/10/05 03:14:40;;;;;;;10.57;3.00;;;;;;;;;;5037195;28;20519;-74
2023/10/05 03:17:12;;;;;;;16.63;3.13;;;20.40;99.90;;;;;;5055090;28;20037;-73
2023/10/05 03:19:39;;;;;;;14.68;2.53;;;20.30;99.90;;;;;;5037110;28;20048;-74
2023/10/05 03:22:07;;;;;;;12.48;3.05;;;19.70;99.90;;;;;;5037091;28;20040;-74
2023/10/05 03:24:35;;;;;;;13.13;3.47;;;20.10;99.90;;;;;;5037104;28;20040;-73
2023/10/05 03:27:05;;;;;;;11.75;2.92;;;20.10;99.90;;;;;;5036995;28;20076;-74
2023/10/05 03:29:35;;;;;;;11.38;2.72;;;20.10;99.90;;;;;;5020269;28;20036;-73
2023/10/05 03:32:13;;;;;;;13.35;3.53;;;20.40;99.90;;;;;;5036465;28;20045;-73
2023/10/05 03:34:45;;;;;;;12.35;3.47;;;20.50;99.90;;;;;;5036852;28;20076;-73
2023/10/05 03:37:15;;;;;;;12.40;3.03;;;;;;;;;;5036602;28;20052;-73
2023/10/05 03:39:53;;;;;;;15.82;2.72;;;20.30;99.90;;;;;;5036408;28;20037;-72
2023/10/05 03:42:22;;;;;;;15.13;2.83;;;20.00;99.90;;;;;;5054679;28;20040;-74
2023/10/05 03:45:01;;;;;;;11.43;3.08;;;20.10;99.90;;;;;;5020185;28;20033;-73
2023/10/05 03:47:27;;;;;;;14.27;2.65;;;19.90;99.90;;;;;;5019974;28;20041;-74
2023/10/05 03:49:56;;;;;;;13.60;2.72;;;20.00;99.90;;;;;;5054126;28;20037;-74
2023/10/05 03:52:23;;;;;;;12.98;3.22;;;20.40;99.90;;;;;;5054300;28;20045;-73
2023/10/05 03:54:49;;;;;;;10.50;2.58;;;20.10;99.90;;;;;;5054292;28;20040;-73
2023/10/05 03:57:16;;;;;;;17.17;3.75;;;20.50;99.90;;;;;;5019964;28;20116;-73
2023/10/05 03:59:43;;;;;;;16.13;2.85;;;19.90;99.90;;;;;;5036225;28;20045;-73
2023/10/05 04:02:09;;;;;;;8.93;3.00;;;;;;;;;;5036279;28;20072;-74
2023/10/05 04:04:36;;;;;;;12.93;3.53;;;20.00;99.90;;;;;;5036138;28;20083;-74
2023/10/05 04:07:03;;;;;;;14.75;3.28;;;20.00;99.90;;;;;;5035956;28;20051;-73
2023/10/05 04:09:34;;;;;;;12.98;3.00;;;20.00;99.90;;;;;;5052648;28;20056;-74
2023/10/05 04:12:01;;;;;;;13.77;3.10;;;;;;;;;;5035048;28;20037;-73
2023/10/05 04:14:26;;;;;;;14.95;3.00;;;20.60;99.90;;;;;;5036004;28;20650;-73
2023/10/05 04:17:02;;;;;;;13.73;3.55;;;20.30;99.90;;;;;;5035200;28;20044;-74
2023/10/05 04:19:28;;;;;;;11.65;2.60;;;20.50;99.90;;;;;;5035555;28;20098;-73
2023/10/05 04:21:56;;;;;;;18.80;3.13;;;;;;;;;;5035208;28;20045;-74
2023/10/05 04:24:22;;;;;;;8.38;3.13;;;;;;;;;;5053516;28;20045;-73
2023/10/05 04:26:47;;;;;;;14.23;4.15;;;20.30;99.90;;;;;;5035722;28;20048;-72
2023/10/05 04:29:14;;;;;;;17.48;2.97;;;20.20;99.90;;;;;;5053568;28;20125;-73
2023/10/05 04:31:41;;;;;;;20.63;3.45;;;20.00;99.90;;;;;;5035321;28;20048;-73
2023/10/05 04:34:11;;;;;;;11.77;2.88;;;20.50;99.90;;;;;;5018502;28;20075;-73
2023/10/05 04:36:41;;;;;;;15.23;3.40;;;;;;;;;;5035726;28;20084;-73
2023/10/05 04:39:07;;;;;;;17.00;4.25;;;20.60;99.90;;;;;;5035508;28;20504;-73
2023/10/05 04:41:39;;;;;;;13.38;3.20;;;;;;;;;;5035304;28;20056;-73
2023/10/05 04:44:12;;;;;;;21.10;3.95;;;20.30;99.90;;;;;;5035738;28;20401;-73
2023/10/05 04:46:47;;;;;;;15.65;2.53;;;20.40;99.90;;;;;;5019137;28;20047;-73
2023/10/05 04:49:16;;;;;;;12.10;3.60;;;20.60;99.90;;;;;;5035334;28;20056;-74
2023/10/05 04:51:43;;;;;;;11.45;3.15;;;20.10;99.90;;;;;;5053809;28;20037;-73
2023/10/05 04:54:10;;;;;;;16.05;3.20;;;20.00;99.90;;;;;;5035129;28;20118;-74
2023/10/05 05:07:09;;;;;;;12.82;3.38;;;20.60;99.90;;;;;;5057422;28;20056;-74
2023/10/05 05:09:44;;;;;;;9.20;3.55;;;20.20;99.90;;;;;;5040084;28;20067;-73
2023/10/05 05:12:18;;;;;;;11.73;2.75;;;20.00;99.90;;;;;;5033806;28;20048;-74
2023/10/05 05:14:52;;;;;;;11.07;2.75;;;20.00;99.90;;;;;;5033919;28;20041;-74
2023/10/05 05:17:19;;;;;;;13.30;3.10;;;20.40;99.90;;;;;;5017322;28;20048;-74
2023/10/05 05:19:46;;;;;;;15.50;3.05;;;20.50;99.90;;;;;;5034598;28;20051;-73
2023/10/05 05:22:13;;;;;;;18.42;3.83;;;20.30;99.90;;;;;;5018392;28;20045;-74
2023/10/05 05:24:40;;;;;;;12.82;3.47;;;20.30;99.90;;;;;;5034655;28;20067;-73
2023/10/05 05:27:21;;;;;;;16.00;3.15;;;20.60;99.90;;;;;;5034754;28;20048;-73
2023/10/05 05:29:48;;;;;;;14.25;3.78;;;20.60;99.90;;;;;;5034368;28;20049;-74
2023/10/05 05:32:13;;;;;;;12.85;2.95;;;20.60;99.90;;;;;;5034795;28;20037;-73
2023/10/05 05:34:43;;;;;;;14.45;4.63;;;20.40;99.90;;;;;;5018343;28;20037;-73
2023/10/05 05:37:25;;;;;;;15.32;3.47;;;20.70;99.90;;;;;;5034333;28;20060;-74
2023/10/05 05:39:53;;;;;;;16.40;5.73;;;20.00;99.90;;;;;;5034283;28;20519;-73
2023/10/05 05:42:19;;;;;;;16.13;3.00;;;;;;;;;;5034535;28;20399;-73
2023/10/05 05:44:45;;;;;;;23.85;4.40;;;;;;;;;;5017938;28;20041;-73
2023/10/05 05:47:14;;;;;;;16.33;3.50;;;20.50;99.90;;;;;;5034315;28;20041;-74
2023/10/05 05:49:45;;;;;;;16.08;3.17;;;20.30;99.90;;;;;;5017782;28;20041;-74
2023/10/05 05:52:12;;;;;;;15.05;3.17;;;20.60;99.90;;;;;;5034205;28;20424;-73
2023/10/05 05:54:39;;;;;;;14.40;3.33;;;20.20;99.90;;;;;;5051987;28;20508;-74
2023/10/05 05:57:11;;;;;;;15.45;3.08;;;20.50;99.90;;;;;;5034160;28;20087;-74
2023/10/05 05:59:41;;;;;;;21.73;4.20;;;20.20;99.90;;;;;;5032608;28;20053;-74
2023/10/05 06:02:10;;;;;;;16.42;3.38;;;20.50;99.90;;;;;;5051361;28;20112;-74
2023/10/05 06:04:40;;;;;;;13.50;3.55;;;20.60;99.90;;;;;;5034193;28;20073;-74
2023/10/05 06:07:13;;;;;;;11.95;3.42;;;20.70;99.90;;;;;;5033757;28;20077;-74
2023/10/05 06:09:43;;;;;;;13.75;4.60;;;20.60;99.90;;;;;;5033931;28;20060;-74
2023/10/05 06:12:12;;;;;;;19.55;3.47;;;20.60;99.90;;;;;;5000953;28;20503;-74
2023/10/05 06:14:42;;;;;;;16.52;3.05;;;20.30;99.90;;;;;;5034165;28;20378;-74
2023/10/05 06:17:11;;;;;;;13.98;2.97;;;20.40;99.90;;;;;;5033816;28;20087;-74
2023/10/05 06:19:37;;;;;;;14.63;3.40;;;20.80;99.90;;;;;;5033635;28;20124;-74
2023/10/05 06:22:06;;;;;;;17.02;4.95;;;20.60;99.90;;;;;;5051184;28;20073;-74
2023/10/05 06:24:34;;;;;;;13.50;3.10;;;20.30;99.90;;;;;;5034067;28;20119;-74
2023/10/05 06:27:02;;;;;;;24.10;4.63;;;20.60;99.90;;;;;;5033669;28;20496;-74
2023/10/05 06:29:28;;;;;;;17.02;4.47;;;20.70;99.90;;;;;;5033692;28;20408;-74
2023/10/05 06:31:53;;;;;;;11.32;2.80;;;20.50;99.90;;;;;;5033743;28;20033;-74
2023/10/05 06:34:19;;;;;;;15.55;3.55;;;20.70;99.90;;;;;;5051598;28;20053;-73
2023/10/05 06:36:45;;;;;;;11.77;3.15;;;20.80;99.90;;;;;;5033558;28;20033;-74
2023/10/05 06:39:14;;;;;;;15.48;3.72;;;;;;;;;;5026739;28;20567;-74
2023/10/05 06:41:42;;;;;;;13.15;3.72;;;20.80;99.90;;;;;;5030045;28;20064;-73
2023/10/05 06:44:10;;;;;;;12.77;4.25;;;;;;;;;;5019693;28;20036;-74
2023/10/05 06:46:42;;;;;;;13.45;3.60;;;20.60;99.90;;;;;;5018534;28;20520;-74
2023/10/05 06:49:09;;;;;;;11.73;3.53;;;20.60;99.90;;;;;;5027874;28;20123;-75
2023/10/05 06:51:39;;;;;;;20.35;3.28;;;20.40;99.90;;;;;;5030196;28;20512;-74
2023/10/05 06:54:05;;;;;;;19.17;3.25;;;21.00;99.90;;;;;;5030133;28;20461;-74
2023/10/05 06:56:31;;;;;;;17.77;3.70;;;;;;;;;;5020943;28;20033;-74
2023/10/05 06:58:56;;;;;;;15.15;3.50;;;20.90;99.90;;;;;;5029976;28;20045;-74
2023/10/05 07:01:22;;;;;;;17.30;3.30;;;20.60;99.90;;;;;;5023748;28;20108;-73
2023/10/05 07:03:52;;;;;;;11.57;3.20;;;20.60;99.90;;;;;;5028609;28;20025;-74
2023/10/05 07:06:25;;;;;;;17.35;3.58;;;19.60;99.90;;;;;;5015030;28;20095;-74
2023/10/05 07:08:53;;;;;;;17.50;3.30;;;20.80;99.90;;;;;;5029921;28;20045;-75
2023/10/05 07:11:20;;;;;;;19.10;4.25;;;21.20;99.90;;;;;;5021670;28;20037;-75
2023/10/05 07:13:49;;;;;;;12.40;3.05;;;20.80;99.90;;;;;;5020524;28;20520;-73
2023/10/05 07:16:15;;;;;;;20.50;4.00;;;21.30;99.90;;;;;;5021110;28;20412;-74
2023/10/05 07:18:41;;;;;;;16.10;3.45;;;;;;;;;;5029582;28;20045;-74
2023/10/05 07:21:11;;;;;;;12.50;2.92;;;20.50;99.90;;;;;;5025121;28;20043;-74
2023/10/05 07:23:38;;;;;;;15.00;3.25;;;21.00;99.90;;;;;;5030861;28;20045;-73
2023/10/05 07:26:07;;;;;;;16.42;3.45;;;20.70;99.90;;;;;;5026802;28;20037;-73
2023/10/05 07:28:41;;;;;;;23.38;4.75;;;21.00;99.90;;;;;;5031616;28;20120;-74
2023/10/05 07:31:10;;;;;;;16.13;4.05;;;;;;;;;;5013175;28;20473;-73
2023/10/05 07:33:36;;;;;;;18.23;3.17;;;20.60;99.90;;;;;;5016981;28;20041;-73
2023/10/05 07:36:03;;;;;;;13.98;3.40;;;20.60;99.90;;;;;;5023184;28;20045;-73
2023/10/05 07:38:29;;;;;;;12.85;3.50;;;;;;;;;;5036423;28;20083;-73
2023/10/05 07:40:55;;;;;;;18.08;4.13;;;20.80;99.90;;;;;;5036267;28;20037;-73
2023/10/05 07:43:21;;;;;;;11.25;3.45;;;21.00;99.90;;;;;;5036665;28;20045;-73
2023/10/05 07:45:47;;;;;;;14.48;4.03;;;;;;;;;;5020595;28;20036;-74
2023/10/05 07:48:12;;;;;;;18.45;4.60;;;20.30;99.90;;;;;;5036419;28;20123;-75
2023/10/05 07:50:38;;;;;;;16.17;3.22;;;20.50;99.90;;;;;;5036391;28;20123;-74
2023/10/05 07:53:04;;;;;;;12.93;3.97;;;20.90;99.90;;;;;;5036387;28;20115;-73
2023/10/05 07:55:31;;;;;;;25.08;4.72;;;20.40;99.90;;;;;;5019843;28;20040;-73
2023/10/05 07:57:57;;;;;;;12.38;3.47;;;;;;;;;;5036398;28;20073;-73
2023/10/05 08:00:23;;;;;;;17.17;4.40;;;20.90;99.90;;;;;;5020015;28;20044;-73
2023/10/05 08:02:48;;;;;;;11.88;3.83;;;21.00;99.90;;;;;;5036223;28;20071;-73
2023/10/05 08:05:17;;;;;;;19.70;3.95;;;21.20;99.90;;;;;;5036200;28;20512;-73
2023/10/05 08:07:44;;;;;;;18.17;3.45;;;20.40;99.90;;;;;;5036308;28;20513;-73
2023/10/05 08:10:15;;;;;;;14.75;3.83;;;20.30;99.90;;;;;;5035888;28;20048;-74
2023/10/05 08:12:42;;;;;;;20.80;4.60;;;21.00;99.90;;;;;;5035956;28;20411;-74
2023/10/05 08:15:09;;;;;;;18.80;4.10;;;21.20;99.90;;;;;;5036060;28;20078;-73
2023/10/05 08:17:36;;;;;;;16.08;3.75;;;20.40;99.90;;;;;;5036074;28;20096;-74
2023/10/05 08:20:04;;;;;;;19.45;3.90;;;20.20;99.90;;;;;;5019539;28;20053;-73
2023/10/05 08:22:30;;;;;;;20.95;3.55;;;21.30;99.90;;;;;;5035975;28;20413;-73
2023/10/05 08:24:57;;;;;;;20.48;4.57;;;;;;;;;;5019774;28;20044;-74
2023/10/05 08:27:24;;;;;;;16.40;4.80;;;20.50;99.90;;;;;;5036035;28;20045;-74
2023/10/05 08:29:50;;;;;;;21.35;4.80;;;20.90;99.90;;;;;;5035465;28;20102;-74
2023/10/05 08:32:16;;;;;;;17.42;4.57;;;21.10;99.90;;;;;;5035632;28;20044;-74
2023/10/05 08:34:44;;;;;;;19.80;5.40;;;20.80;99.90;;;;;;5034797;28;20037;-74
2023/10/05 08:37:12;;;;;;;22.73;6.03;;;20.80;99.90;;;;;;5035558;28;20283;-74
2023/10/05 08:39:37;;;;;;;16.67;4.00;;;20.60;99.90;;;;;;5019203;28;20484;-74
2023/10/05 08:42:06;;;;;;;15.73;3.90;;;21.40;99.90;;;;;;5019027;28;20059;-74
2023/10/05 08:44:38;;;;;;;15.25;4.07;;;20.70;99.90;;;;;;5035980;28;20033;-74
2023/10/05 08:47:08;;;;;;;15.38;4.30;;;20.50;99.90;;;;;;5035420;28;20508;-74
2023/10/05 08:49:34;;;;;;;17.25;4.07;;;20.70;99.90;;;;;;5035307;28;20052;-74
2023/10/05 08:52:08;;;;;;;15.25;3.85;;;21.00;99.90;;;;;;5018620;28;20044;-74
2023/10/05 08:54:34;;;;;;;14.90;4.25;;;20.50;99.90;;;;;;5035313;28;20040;-74
2023/10/05 08:57:09;;;;;;;19.23;6.20;;;21.00;99.90;;;;;;5035290;28;20083;-74
2023/10/05 08:59:34;;;;;;;12.25;4.22;;;21.20;99.90;;;;;;5035508;28;20404;-74
2023/10/05 09:02:00;;;;;;;18.38;5.38;;;21.00;99.90;;;;;;5034890;28;20044;-74
2023/10/05 09:04:43;;;;;;;13.82;4.47;;;20.70;99.90;;;;;;5035053;28;20045;-74
2023/10/05 09:07:09;;;;;;;17.52;6.35;;;21.40;99.90;;;;;;5034985;28;20068;-74
2023/10/05 09:09:53;;;;;;;18.50;4.70;;;21.50;99.90;;;;;;5018473;28;20056;-74
2023/10/05 09:14:46;;;;;;;8.27;3.85;;;;;;;;;;5091681;22;20531;-76
2023/10/05 09:17:15;;;;;;;10.95;3.22;;;21.30;99.90;;;;;;5054795;28;20526;-75
2023/10/05 09:19:44;;;;;;;9.18;2.42;;;;;;;;;;5038027;28;20046;-75
2023/10/05 09:22:14;;;;;;;7.32;2.55;;;21.00;99.90;;;;;;5054925;28;20119;-76
2023/10/05 09:24:50;;;;;;;11.00;3.47;;;20.70;99.90;;;;;;5037868;28;20036;-76
2023/10/05 09:27:17;;;;;;;12.88;3.30;;;21.30;99.90;;;;;;5054536;28;20048;-77
2023/10/05 09:29:43;;;;;;;14.75;3.80;;;21.00;99.90;;;;;;5037623;28;20084;-75
2023/10/05 09:32:30;;;;;;;16.83;5.05;;;21.00;99.90;;;;;;5054690;28;20040;-75
2023/10/05 09:34:56;;;;;;;16.17;4.25;;;20.50;99.90;;;;;;5054648;28;20503;-76
2023/10/05 09:37:25;;;;;;;20.20;6.25;;;21.50;99.90;;;;;;5037578;28;20040;-76
2023/10/05 09:39:54;;;;;;;17.15;5.65;;;;;;;;;;5054273;28;20040;-75
2023/10/05 09:42:26;;;;;;;13.02;3.85;;;21.10;99.90;;;;;;5054360;28;20045;-75
2023/10/05 09:44:57;;;;;;;20.33;5.30;;;20.80;99.90;;;;;;5054455;28;20110;-76
2023/10/05 09:47:32;;;;;;;17.88;5.20;;;21.80;99.90;;;;;;5054618;28;20067;-75
2023/10/05 09:50:00;;;;;;;19.55;4.85;;;20.70;99.90;;;;;;5037243;28;20048;-76
2023/10/05 09:52:34;;;;;;;16.77;4.45;;;21.10;99.90;;;;;;5037340;28;20085;-75
2023/10/05 09:55:02;;;;;;;11.27;3.33;;;20.80;99.90;;;;;;5037467;28;20411;-76
2023/10/05 09:57:29;;;;;;;18.88;4.35;;;;;;;;;;5053675;28;20051;-76
2023/10/05 09:59:58;;;;;;;19.90;4.05;;;21.30;99.90;;;;;;5053794;28;20085;-76
2023/10/05 10:02:30;;;;;;;18.50;4.40;;;21.30;99.90;;;;;;5050589;28;20068;-77
2023/10/05 10:04:59;;;;;;;13.18;4.45;;;21.70;99.90;;;;;;5062464;28;20139;-76
2023/10/05 10:07:26;;;;;;;13.15;4.45;;;20.90;99.90;;;;;;5046635;28;20036;-79
2023/10/05 10:09:54;;;;;;;19.70;4.20;;;22.00;99.90;;;;;;5045885;28;20287;-77
2023/10/05 10:12:33;;;;;;;16.10;3.70;;;21.20;99.90;;;;;;5043970;28;20044;-77
2023/10/05 10:15:00;;;;;;;15.43;3.70;;;22.00;99.90;;;;;;5035018;28;20044;-76
2023/10/05 10:17:33;;;;;;;15.60;3.83;;;22.10;99.90;;;;;;5021004;28;20040;-78
2023/10/05 10:20:34;;;;;;;;;;;21.60;99.90;;;;;;5021770;28;20119;-75
2023/10/05 10:23:08;;;;;;;12.60;3.53;;;21.90;99.90;;;;;;5042177;28;20384;-78
2023/10/05 10:25:44;;;;;;;13.57;3.08;;;22.10;99.90;;;;;;5044854;28;20036;-78
2023/10/05 10:28:14;;;;;;;14.52;4.60;;;21.80;99.90;;;;;;5054486;28;20123;-77
2023/10/05 10:30:48;;;;;;;14.70;4.18;;;21.70;99.90;;;;;;5055613;28;20123;-78
2023/10/05 10:33:35;;;;;;;13.45;3.47;;;22.00;99.90;;;;;;5056622;28;20123;-77
2023/10/05 10:36:03;;;;;;;11.90;4.18;;;22.40;99.90;;;;;;5055771;28;20063;-78
2023/10/05 10:38:30;;;;;;;12.15;3.53;;;22.50;99.90;;;;;;5055787;28;20082;-78
2023/10/05 10:41:07;;;;;;;11.60;3.22;;;22.10;99.90;;;;;;5055467;28;20041;-77
2023/10/05 10:43:34;;;;;;;14.43;3.63;;;22.10;99.90;;;;;;5056938;28;20595;-77
2023/10/05 10:46:00;;;;;;;14.80;3.10;;;21.70;99.90;;;;;;5040092;28;20044;-77
2023/10/05 10:48:29;;;;;;;18.83;4.95;;;22.50;99.90;;;;;;5057199;28;20473;-78
2023/10/05 10:50:59;;;;;;;10.80;3.08;;;22.20;99.90;;;;;;5055427;28;20090;-77
2023/10/05 10:53:30;;;;;;;17.70;3.70;;;21.90;99.90;;;;;;5056940;28;20029;-78
2023/10/05 10:56:03;;;;;;;13.88;3.67;;;23.20;99.90;;;;;;5057276;28;20047;-78
2023/10/05 10:58:30;;;;;;;23.60;4.82;;;23.00;99.90;;;;;;5060503;28;20067;-77
2023/10/05 11:01:02;;;;;;;10.75;3.53;;;22.60;99.90;;;;;;5044009;28;20504;-77
2023/10/05 11:03:30;;;;;;;14.60;4.15;;;22.60;99.90;;;;;;5060053;28;20044;-78
2023/10/05 11:05:58;;;;;;;10.57;3.35;;;23.40;99.90;;;;;;5062439;28;20025;-76
2023/10/05 11:08:29;;;;;;;13.20;3.20;;;23.20;99.90;;;;;;5058652;28;20033;-76
2023/10/05 11:10:59;;;;;;;11.93;3.38;;;23.60;99.90;;;;;;5074039;28;20451;-77
2023/10/05 11:13:30;;;;;;;14.95;3.50;;;23.20;99.90;;;;;;5069155;28;20055;-77
2023/10/05 11:16:00;;;;;;;13.75;2.60;;;23.20;99.90;;;;;;5043886;28;20039;-76
2023/10/05 11:18:26;;;;;;;14.05;3.47;;;23.20;99.90;;;;;;5044741;28;20423;-77
2023/10/05 11:20:52;;;;;;;12.07;2.47;;;23.40;99.90;;;;;;5061347;28;20305;-77
2023/10/05 11:23:25;;;;;;;12.13;3.13;;;23.60;99.90;;;;;;5060493;28;20037;-77
2023/10/05 11:25:52;;;;;;;14.25;3.80;;;22.60;99.90;;;;;;5042309;28;20044;-77
2023/10/05 11:28:25;;;;;;;14.38;3.25;;;23.50;99.90;;;;;;5043744;28;20029;-78
2023/10/05 11:30:53;;;;;;;;;;;23.10;99.90;;;;;;5060501;28;20068;-77
2023/10/05 11:33:19;;;;;;;14.25;2.67;;;23.30;99.90;;;;;;5060244;28;20326;-77
2023/10/05 11:35:51;;;;;;;13.85;3.28;;;23.10;99.90;;;;;;5060538;28;20040;-76
2023/10/05 11:38:19;;;;;;;6.85;2.85;;;22.80;99.90;;;;;;5058838;28;20037;-77
2023/10/05 11:40:53;;;;;;;11.85;3.15;;;22.80;99.90;;;;;;5059624;28;20040;-77
2023/10/05 11:43:20;;;;;;;12.82;4.18;;;23.20;99.90;;;;;;5059980;28;20109;-77
2023/10/05 11:45:57;;;;;;;14.20;2.95;;;22.90;99.90;;;;;;5044566;28;20041;-77
2023/10/05 11:48:42;;;;;;;16.00;3.50;;;23.00;99.90;;;;;;5062316;28;20044;-77
2023/10/05 11:51:13;;;;;;;14.77;3.45;;;23.20;99.90;;;;;;5069836;28;20037;-77
2023/10/05 11:53:39;;;;;;;10.13;2.97;;;22.70;99.90;;;;;;5055602;28;20037;-78
2023/10/05 11:56:06;;;;;;;13.80;2.97;;;22.70;99.90;;;;;;5054578;28;20123;-77
2023/10/05 11:58:37;;;;;;;12.75;3.58;;;22.60;99.90;;;;;;5052570;28;20092;-77
2023/10/05 12:01:03;;;;;;;15.75;3.38;;;22.90;99.90;;;;;;5066852;28;20099;-77
2023/10/05 12:03:30;;;;;;;24.50;3.78;;;23.40;99.90;;;;;;5051812;28;20028;-78
2023/10/05 12:06:00;;;;;;;9.73;3.15;;;23.00;99.90;;;;;;5067865;28;20068;-76
2023/10/05 12:08:29;;;;;;;17.30;4.22;;;23.30;99.90;;;;;;5068015;28;20059;-77
2023/10/05 12:10:59;;;;;;;10.55;3.10;;;22.90;99.90;;;;;;5063042;28;20049;-77
2023/10/05 12:13:26;;;;;;;13.90;2.63;;;23.50;99.90;;;;;;5060802;28;20037;-77
2023/10/05 12:15:52;;;;;;;11.13;2.92;;;22.90;99.90;;;;;;5063605;28;20097;-78
2023/10/05 12:18:17;;;;;;;7.35;2.83;;;23.10;99.90;;;;;;5069638;28;20071;-78
2023/10/05 12:20:45;;;;;;;9.23;2.20;;;23.00;99.90;;;;;;5086136;28;20041;-78
2023/10/05 12:23:14;;;;;;;8.45;3.20;;;23.10;99.90;;;;;;5050154;28;20045;-77
2023/10/05 12:25:41;;;;;;;11.40;3.10;;;23.00;99.90;;;;;;5068589;28;20045;-78
2023/10/05 12:28:08;;;;;;;11.80;2.67;;;23.30;99.90;;;;;;5059796;28;20044;-77
2023/10/05 12:30:39;;;;;;;14.05;2.88;;;23.10;99.90;;;;;;5058695;28;20534;-78
2023/10/05 12:33:08;;;;;;;8.55;2.45;;;23.00;99.90;;;;;;5058862;28;20055;-76
2023/10/05 12:35:36;;;;;;;13.63;3.20;;;23.60;99.90;;;;;;5058157;28;20133;-78
2023/10/05 12:38:09;;;;;;;14.27;3.70;;;22.90;99.90;;;;;;5041311;28;20078;-77
2023/10/05 12:40:40;;;;;;;12.77;3.13;;;23.20;99.90;;;;;;5076434;28;20037;-78
2023/10/05 12:43:07;;;;;;;15.07;2.40;;;23.20;99.90;;;;;;5058291;28;20037;-77
2023/10/05 12:45:33;;;;;;;11.23;2.85;;;23.10;99.90;;;;;;5058173;28;20036;-77
2023/10/05 12:47:58;;;;;;;9.70;2.45;;;23.30;99.90;;;;;;5057745;28;20121;-78
2023/10/05 12:50:26;;;;;;;12.50;2.45;;;23.00;99.90;;;;;;5058240;28;20569;-78
2023/10/05 12:52:52;;;;;;;7.75;2.58;;;23.20;99.90;;;;;;5041929;28;20048;-78
2023/10/05 12:55:19;;;;;;;9.93;2.40;;;22.90;99.90;;;;;;5058299;28;20634;-77
2023/10/05 12:57:52;;;;;;;8.65;2.20;;;23.20;99.90;;;;;;5041322;28;20050;-78
2023/10/05 13:00:19;;;;;;;;;;;23.20;99.90;;;;;;5057960;28;20040;-76
2023/10/05 13:02:52;;;;;;;12.18;3.60;;;23.20;99.90;;;;;;5057796;28;19920;-77
2023/10/05 13:05:23;;;;;;;7.35;2.47;;;23.40;99.90;;;;;;5040522;28;20059;-78
2023/10/05 13:07:50;;;;;;;12.43;3.00;;;23.00;99.90;;;;;;5057460;28;20135;-77
2023/10/05 13:10:50;;;;;;;8.05;2.60;;;23.20;99.90;;;;;;5057074;28;20032;-78
2023/10/05 13:13:17;;;;;;;7.73;2.10;;;23.30;99.90;;;;;;5054497;28;20045;-78
2023/10/05 13:15:44;;;;;;;12.48;2.47;;;23.20;99.90;;;;;;5058228;28;20290;-77
2023/10/05 13:18:19;;;;;;;11.05;2.40;;;23.20;99.90;;;;;;5056833;28;20044;-77
2023/10/05 13:20:47;;;;;;;14.25;2.50;;;23.60;99.90;;;;;;5040033;28;20511;-78
2023/10/05 13:23:13;;;;;;;16.23;2.80;;;22.80;99.90;;;;;;5057690;28;20094;-78